Time;durP1;ratioP1;P1;durP2;ratioP2;P2;SDS_P1;SDS_P2;PMS_P1;PMS_P2;Temp;Humidity;BMP_temperature;BMP_pressure;BME280_temperature;BME280_humidity;BME280_pressure;Samples;Min_cycle;Max_cycle;Signal;HPM_P1;HPM_P2
2023/06/19 00:01:10;;;;;;;0.00;0.00;;;22.00;63.10;;;;;;5035728;28;20057;-66
2023/06/19 00:03:36;;;;;;;0.10;0.10;;;22.10;63.00;;;;;;5036170;28;20041;-66
2023/06/19 00:06:02;;;;;;;0.00;0.00;;;22.10;63.70;;;;;;5019959;28;20047;-66
2023/06/19 00:08:27;;;;;;;0.00;0.00;;;22.10;63.90;;;;;;5035758;28;20041;-65
2023/06/19 00:10:54;;;;;;;0.00;0.00;;;22.10;63.80;;;;;;5036158;28;21064;-66
2023/06/19 00:13:19;;;;;;;0.00;0.00;;;22.10;63.90;;;;;;5036657;28;20055;-65
2023/06/19 00:15:45;;;;;;;0.00;0.00;;;22.10;64.00;;;;;;5037217;28;20037;-65
2023/06/19 00:18:11;;;;;;;0.00;0.00;;;22.10;64.60;;;;;;5037005;28;20065;-67
2023/06/19 00:20:36;;;;;;;0.00;0.00;;;22.10;64.30;;;;;;5018753;28;20075;-66
2023/06/19 00:23:02;;;;;;;0.00;0.00;;;22.10;64.60;;;;;;5036949;28;20045;-66
2023/06/19 00:25:27;;;;;;;0.05;0.05;;;22.10;64.80;;;;;;5037465;28;20041;-66
2023/06/19 00:27:53;;;;;;;0.00;0.00;;;22.10;64.30;;;;;;5037625;28;20069;-66
2023/06/19 00:30:19;;;;;;;0.00;0.00;;;22.10;64.40;;;;;;5036668;28;20037;-66
2023/06/19 00:32:49;;;;;;;0.00;0.00;;;22.10;64.40;;;;;;5035985;28;20092;-66
2023/06/19 00:35:16;;;;;;;0.00;0.00;;;22.10;64.10;;;;;;5036522;28;20499;-65
2023/06/19 00:37:44;;;;;;;0.25;0.25;;;22.10;63.90;;;;;;5036800;28;20037;-65
2023/06/19 00:40:30;;;;;;;0.00;0.00;;;22.10;63.60;;;;;;5040883;28;20482;-65
2023/06/19 00:42:56;;;;;;;0.00;0.00;;;22.10;64.40;;;;;;5021480;28;20116;-66
2023/06/19 00:45:23;;;;;;;0.00;0.00;;;22.10;64.20;;;;;;5039856;28;20044;-66
2023/06/19 00:47:50;;;;;;;0.35;0.35;;;22.10;64.30;;;;;;5039705;28;20041;-65
2023/06/19 00:50:16;;;;;;;0.00;0.00;;;22.10;64.70;;;;;;5040259;28;20092;-65
2023/06/19 00:52:42;;;;;;;0.00;0.00;;;22.10;64.10;;;;;;5040400;28;20037;-65
2023/06/19 00:55:09;;;;;;;0.00;0.00;;;22.10;64.40;;;;;;5039535;28;20047;-65
2023/06/19 00:57:35;;;;;;;0.00;0.00;;;22.10;64.80;;;;;;5022282;28;20044;-65
2023/06/19 01:00:05;;;;;;;0.00;0.00;;;22.10;64.70;;;;;;5040069;28;20053;-66
2023/06/19 01:02:30;;;;;;;0.00;0.00;;;22.10;64.60;;;;;;5040211;28;20073;-66
2023/06/19 01:04:56;;;;;;;0.00;0.00;;;22.10;65.10;;;;;;5040514;28;20131;-66
2023/06/19 01:07:40;;;;;;;0.00;0.00;;;22.00;64.70;;;;;;5040089;28;20406;-66
2023/06/19 01:10:10;;;;;;;0.00;0.00;;;22.10;64.60;;;;;;5040497;28;20819;-66
2023/06/19 01:12:50;;;;;;;0.00;0.00;;;22.10;65.30;;;;;;5039353;28;20049;-65
2023/06/19 01:15:16;;;;;;;0.00;0.00;;;22.00;65.90;;;;;;5038836;28;20517;-66
2023/06/19 01:17:43;;;;;;;0.00;0.00;;;22.00;65.60;;;;;;5039071;28;20052;-66
2023/06/19 01:20:11;;;;;;;0.00;0.00;;;22.00;64.60;;;;;;5039564;28;20099;-66
2023/06/19 01:22:37;;;;;;;0.00;0.00;;;22.00;65.00;;;;;;5021703;28;21111;-65
2023/06/19 01:25:05;;;;;;;0.00;0.00;;;22.00;65.20;;;;;;5039233;28;20045;-65
2023/06/19 01:27:32;;;;;;;0.00;0.00;;;22.00;65.60;;;;;;5040995;28;20037;-66
2023/06/19 01:29:59;;;;;;;0.28;0.28;;;22.00;65.00;;;;;;5040589;28;20037;-65
2023/06/19 01:32:53;;;;;;;0.00;0.00;;;22.00;64.70;;;;;;5022101;28;20048;-65
2023/06/19 01:35:22;;;;;;;0.00;0.00;;;21.90;64.50;;;;;;5039387;28;20037;-65
2023/06/19 01:37:48;;;;;;;0.00;0.00;;;21.90;64.20;;;;;;5038647;28;20426;-66
2023/06/19 01:40:15;;;;;;;0.00;0.00;;;21.90;64.20;;;;;;5038704;28;20080;-65
2023/06/19 01:42:42;;;;;;;0.00;0.00;;;21.90;64.10;;;;;;5038763;28;20056;-65
2023/06/19 01:45:09;;;;;;;0.00;0.00;;;21.90;64.00;;;;;;5021757;28;20038;-65
2023/06/19 01:47:34;;;;;;;0.00;0.00;;;21.90;63.70;;;;;;5038895;28;20053;-65
2023/06/19 01:50:00;;;;;;;0.00;0.00;;;21.90;63.10;;;;;;5039971;28;20037;-65
2023/06/19 01:52:26;;;;;;;0.00;0.00;;;21.90;63.20;;;;;;5039002;28;20033;-65
2023/06/19 01:54:52;;;;;;;0.00;0.00;;;21.90;62.90;;;;;;5039745;28;20045;-66
2023/06/19 01:57:18;;;;;;;0.15;0.15;;;21.90;63.00;;;;;;5039586;28;20140;-65
2023/06/19 01:59:44;;;;;;;0.00;0.00;;;21.80;63.30;;;;;;5020165;28;20045;-66
2023/06/19 02:02:10;;;;;;;0.05;0.05;;;21.80;63.50;;;;;;5039939;28;20490;-65
2023/06/19 02:04:36;;;;;;;0.15;0.15;;;21.80;63.20;;;;;;5038734;28;20069;-66
2023/06/19 02:07:01;;;;;;;0.00;0.00;;;21.90;63.30;;;;;;5039599;28;20152;-66
2023/06/19 02:09:27;;;;;;;0.00;0.00;;;21.80;63.40;;;;;;5020531;28;20743;-65
2023/06/19 02:11:53;;;;;;;0.22;0.22;;;21.80;63.20;;;;;;5038184;28;20040;-65
2023/06/19 02:14:18;;;;;;;0.00;0.00;;;21.80;63.00;;;;;;5038011;28;20056;-65
2023/06/19 02:16:44;;;;;;;0.05;0.05;;;21.80;63.00;;;;;;5038082;28;20107;-65
2023/06/19 02:19:12;;;;;;;0.00;0.00;;;21.80;62.80;;;;;;5039117;28;20091;-65
2023/06/19 02:21:38;;;;;;;0.00;0.00;;;21.80;62.70;;;;;;5038353;28;20132;-65
2023/06/19 02:24:05;;;;;;;0.30;0.30;;;21.70;62.80;;;;;;5038806;28;20041;-65
2023/06/19 02:26:30;;;;;;;0.00;0.00;;;21.70;62.90;;;;;;5020971;28;20057;-65
2023/06/19 02:28:56;;;;;;;0.00;0.00;;;21.70;62.70;;;;;;5020243;28;20056;-66
2023/06/19 02:31:22;;;;;;;0.00;0.00;;;21.60;62.50;;;;;;5038395;28;20042;-66
2023/06/19 02:33:48;;;;;;;0.10;0.10;;;21.60;62.70;;;;;;5021270;28;20033;-66
2023/06/19 02:36:19;;;;;;;0.00;0.00;;;21.60;62.90;;;;;;5038173;28;20875;-65
2023/06/19 02:38:45;;;;;;;0.10;0.10;;;21.60;62.90;;;;;;5038328;28;20045;-66
2023/06/19 02:41:11;;;;;;;0.00;0.00;;;21.60;62.80;;;;;;5038420;28;20123;-65
2023/06/19 02:43:37;;;;;;;0.00;0.00;;;21.60;62.70;;;;;;5003541;28;20049;-65
2023/06/19 02:46:02;;;;;;;0.65;0.63;;;21.60;62.90;;;;;;5038385;28;20069;-66
2023/06/19 02:48:28;;;;;;;0.17;0.17;;;21.60;63.30;;;;;;5037955;28;20487;-65
2023/06/19 02:50:53;;;;;;;1.55;0.90;;;21.60;63.30;;;;;;5037630;28;20094;-65
2023/06/19 02:53:19;;;;;;;0.00;0.00;;;21.60;63.80;;;;;;5037743;28;20048;-66
2023/06/19 02:55:44;;;;;;;0.00;0.00;;;21.60;63.60;;;;;;5038002;28;20116;-66
2023/06/19 02:58:10;;;;;;;0.00;0.00;;;21.60;63.20;;;;;;5037855;28;20088;-65
2023/06/19 03:00:36;;;;;;;0.00;0.00;;;21.60;63.40;;;;;;5037567;28;20077;-65
2023/06/19 03:03:01;;;;;;;0.00;0.00;;;21.60;63.60;;;;;;5038534;28;20126;-66
2023/06/19 03:05:27;;;;;;;0.00;0.00;;;21.60;63.60;;;;;;5038254;28;20033;-66
2023/06/19 03:07:53;;;;;;;0.10;0.10;;;21.60;64.00;;;;;;5036846;28;20104;-66
2023/06/19 03:10:18;;;;;;;0.00;0.00;;;21.60;63.90;;;;;;5038865;28;20103;-65
2023/06/19 03:12:44;;;;;;;0.00;0.00;;;21.60;63.90;;;;;;5019594;28;20099;-65
2023/06/19 03:15:10;;;;;;;0.00;0.00;;;21.60;64.00;;;;;;5037048;28;20481;-65
2023/06/19 03:17:35;;;;;;;0.00;0.00;;;21.50;64.40;;;;;;5036473;28;20076;-66
2023/06/19 03:20:01;;;;;;;0.10;0.10;;;21.50;64.20;;;;;;5036843;28;20065;-65
2023/06/19 03:22:26;;;;;;;0.20;0.20;;;21.50;64.60;;;;;;5037578;28;20040;-65
2023/06/19 03:24:52;;;;;;;0.10;0.10;;;21.50;64.50;;;;;;5038076;28;20041;-65
2023/06/19 03:27:18;;;;;;;0.43;0.32;;;21.50;64.60;;;;;;5037344;28;20095;-65
2023/06/19 03:29:44;;;;;;;0.00;0.00;;;21.30;65.30;;;;;;5037331;28;20172;-65
2023/06/19 03:32:09;;;;;;;0.43;0.35;;;21.40;66.00;;;;;;5035818;28;20044;-65
2023/06/19 03:34:35;;;;;;;0.00;0.00;;;21.30;66.90;;;;;;5036946;28;20041;-65
2023/06/19 03:37:00;;;;;;;0.00;0.00;;;21.30;67.40;;;;;;5003619;28;20099;-65
2023/06/19 03:39:26;;;;;;;0.00;0.00;;;21.30;67.60;;;;;;5037461;28;20049;-65
2023/06/19 03:41:51;;;;;;;0.00;0.00;;;21.20;69.80;;;;;;5036451;28;20108;-65
2023/06/19 03:44:17;;;;;;;0.00;0.00;;;21.20;70.50;;;;;;5036828;28;20055;-65
2023/06/19 03:46:42;;;;;;;0.00;0.00;;;21.10;71.10;;;;;;5037087;28;20073;-65
2023/06/19 03:49:09;;;;;;;0.00;0.00;;;21.10;70.90;;;;;;5038332;28;20038;-65
2023/06/19 03:51:35;;;;;;;0.00;0.00;;;21.10;71.20;;;;;;5036757;28;20041;-65
2023/06/19 03:54:00;;;;;;;0.22;0.22;;;21.00;70.80;;;;;;5036989;28;20041;-65
2023/06/19 03:56:26;;;;;;;0.03;0.03;;;20.90;70.70;;;;;;5036002;28;20104;-65
2023/06/19 03:58:51;;;;;;;0.00;0.00;;;20.90;70.70;;;;;;5036076;28;20802;-65
2023/06/19 04:01:17;;;;;;;0.00;0.00;;;20.80;70.80;;;;;;5036342;28;20103;-66
2023/06/19 04:03:43;;;;;;;0.00;0.00;;;20.80;71.70;;;;;;5036175;28;20080;-65
2023/06/19 04:06:08;;;;;;;0.00;0.00;;;20.80;71.00;;;;;;5036777;28;20103;-65
2023/06/19 04:08:34;;;;;;;0.00;0.00;;;20.80;71.50;;;;;;5037143;28;20072;-66
2023/06/19 04:10:59;;;;;;;0.00;0.00;;;20.80;71.10;;;;;;5037225;28;20044;-65
2023/06/19 04:13:25;;;;;;;0.00;0.00;;;20.80;71.10;;;;;;5040089;28;20045;-65
2023/06/19 04:15:51;;;;;;;0.00;0.00;;;20.80;72.20;;;;;;5040744;28;20695;-65
2023/06/19 04:18:17;;;;;;;0.00;0.00;;;20.80;72.40;;;;;;5041244;28;20033;-65
2023/06/19 04:20:43;;;;;;;0.00;0.00;;;20.80;72.30;;;;;;5040110;28;20446;-66
2023/06/19 04:23:09;;;;;;;0.00;0.00;;;20.80;72.20;;;;;;5040200;28;20497;-65
2023/06/19 04:25:35;;;;;;;0.00;0.00;;;20.80;72.60;;;;;;5041080;28;20055;-65
2023/06/19 04:28:03;;;;;;;0.00;0.00;;;20.80;73.70;;;;;;5041692;28;20029;-66
2023/06/19 04:30:30;;;;;;;0.00;0.00;;;20.80;73.10;;;;;;5042064;28;20053;-65
2023/06/19 04:32:56;;;;;;;0.00;0.00;;;20.90;73.30;;;;;;5006286;28;20800;-66
2023/06/19 04:35:23;;;;;;;0.00;0.00;;;20.90;73.40;;;;;;5041228;28;20091;-66
2023/06/19 04:37:49;;;;;;;0.00;0.00;;;20.90;73.20;;;;;;5040374;28;20049;-66
2023/06/19 04:40:15;;;;;;;0.00;0.00;;;20.90;73.50;;;;;;5040305;28;20056;-66
2023/06/19 04:42:40;;;;;;;0.00;0.00;;;21.00;73.80;;;;;;5039873;28;20096;-66
2023/06/19 04:45:07;;;;;;;0.00;0.00;;;21.00;73.80;;;;;;5040281;28;20041;-66
2023/06/19 04:47:33;;;;;;;0.05;0.05;;;21.00;73.40;;;;;;5040629;28;20049;-66
2023/06/19 04:49:59;;;;;;;0.00;0.00;;;21.10;73.60;;;;;;5041275;28;20048;-66
2023/06/19 04:52:25;;;;;;;0.40;0.40;;;21.10;74.20;;;;;;5040641;28;20048;-66
2023/06/19 04:54:51;;;;;;;0.00;0.00;;;21.10;74.60;;;;;;5039856;28;20045;-67
2023/06/19 04:57:16;;;;;;;0.43;0.43;;;21.10;74.10;;;;;;5040394;28;20033;-66
2023/06/19 04:59:44;;;;;;;0.00;0.00;;;21.10;74.20;;;;;;5039172;28;20053;-69
2023/06/19 05:02:10;;;;;;;0.00;0.00;;;21.10;74.00;;;;;;5022903;28;20080;-67
2023/06/19 05:04:36;;;;;;;0.10;0.10;;;21.10;74.10;;;;;;5039661;28;20564;-67
2023/06/19 05:07:02;;;;;;;0.00;0.00;;;21.10;74.70;;;;;;5039920;28;20042;-67
2023/06/19 05:09:28;;;;;;;0.00;0.00;;;21.10;73.90;;;;;;5007224;28;20045;-68
2023/06/19 05:11:54;;;;;;;0.00;0.00;;;21.10;75.00;;;;;;5022012;28;20037;-67
2023/06/19 05:14:20;;;;;;;0.00;0.00;;;21.10;75.20;;;;;;5040203;28;20095;-68
2023/06/19 05:16:45;;;;;;;0.17;0.17;;;21.00;75.70;;;;;;5040363;28;20124;-66
2023/06/19 05:19:11;;;;;;;0.00;0.00;;;21.00;76.40;;;;;;5006005;28;20048;-66
2023/06/19 05:21:36;;;;;;;0.00;0.00;;;21.00;76.10;;;;;;5039029;28;20044;-66
2023/06/19 05:24:02;;;;;;;0.00;0.00;;;21.00;76.00;;;;;;5020775;28;20088;-66
2023/06/19 05:26:28;;;;;;;0.00;0.00;;;21.00;77.20;;;;;;5022106;28;20519;-66
2023/06/19 05:28:53;;;;;;;0.00;0.00;;;21.00;77.20;;;;;;5039841;28;20050;-66
2023/06/19 05:31:19;;;;;;;0.00;0.00;;;21.00;77.80;;;;;;5039161;28;20488;-67
2023/06/19 05:33:45;;;;;;;0.00;0.00;;;21.00;77.20;;;;;;5038964;28;20548;-66
2023/06/19 05:36:11;;;;;;;0.10;0.10;;;21.10;78.00;;;;;;5038421;28;20454;-67
2023/06/19 05:38:37;;;;;;;0.40;0.40;;;21.10;78.20;;;;;;5024031;28;20084;-66
2023/06/19 05:41:03;;;;;;;0.30;0.30;;;21.10;79.30;;;;;;5039214;28;20529;-66
2023/06/19 05:43:29;;;;;;;0.93;0.73;;;21.10;79.80;;;;;;5039100;28;20045;-66
2023/06/19 05:45:59;;;;;;;3.30;1.50;;;21.10;80.00;;;;;;5038237;28;20056;-67
2023/06/19 05:48:25;;;;;;;0.03;0.03;;;21.20;80.40;;;;;;5039031;28;20129;-66
2023/06/19 05:50:51;;;;;;;0.80;0.80;;;21.10;80.30;;;;;;5040150;28;20520;-67
2023/06/19 05:53:16;;;;;;;3.30;1.67;;;21.10;80.20;;;;;;5021786;28;20078;-67
2023/06/19 05:55:42;;;;;;;0.10;0.10;;;21.10;80.00;;;;;;5040086;28;20075;-68
2023/06/19 05:58:09;;;;;;;0.30;0.30;;;21.10;80.00;;;;;;5039519;28;20224;-68
2023/06/19 06:00:34;;;;;;;0.13;0.13;;;21.10;79.30;;;;;;5004998;28;20037;-65
2023/06/19 06:03:00;;;;;;;0.50;0.50;;;21.00;78.70;;;;;;5036579;28;20041;-67
2023/06/19 06:05:26;;;;;;;0.20;0.20;;;21.00;78.80;;;;;;5038022;28;20486;-67
2023/06/19 06:07:53;;;;;;;0.00;0.00;;;21.00;78.90;;;;;;5039098;28;20037;-67
2023/06/19 06:10:20;;;;;;;0.00;0.00;;;21.00;79.20;;;;;;5018512;28;20049;-68
2023/06/19 06:12:46;;;;;;;0.03;0.03;;;20.90;79.00;;;;;;5039200;28;20490;-68
2023/06/19 06:15:11;;;;;;;0.40;0.32;;;21.00;79.00;;;;;;5038906;28;20091;-67
2023/06/19 06:17:37;;;;;;;0.00;0.00;;;21.00;78.80;;;;;;5038772;28;20029;-67
2023/06/19 06:20:09;;;;;;;0.10;0.10;;;20.90;78.90;;;;;;5037274;28;20032;-71
2023/06/19 06:22:34;;;;;;;0.00;0.00;;;20.90;78.30;;;;;;5019049;28;20048;-68
2023/06/19 06:25:00;;;;;;;0.00;0.00;;;20.80;78.80;;;;;;5038094;28;20033;-67
2023/06/19 06:27:26;;;;;;;0.25;0.25;;;20.70;79.50;;;;;;5038674;28;20091;-67
2023/06/19 06:29:51;;;;;;;0.10;0.10;;;20.60;79.50;;;;;;5033781;28;20802;-68
2023/06/19 06:32:18;;;;;;;0.00;0.00;;;20.60;79.30;;;;;;5018741;28;20047;-68
2023/06/19 06:34:43;;;;;;;1.10;0.85;;;20.50;80.10;;;;;;5019063;28;20049;-67
2023/06/19 06:37:09;;;;;;;0.10;0.10;;;20.40;79.90;;;;;;5037300;28;20041;-69
2023/06/19 06:39:35;;;;;;;0.50;0.40;;;20.20;80.20;;;;;;5036797;28;20055;-69
2023/06/19 06:42:00;;;;;;;3.20;0.82;;;20.10;81.70;;;;;;5037508;28;20049;-68
2023/06/19 06:44:26;;;;;;;0.25;0.25;;;20.00;82.80;;;;;;5036182;28;20045;-67
2023/06/19 06:46:52;;;;;;;0.28;0.28;;;19.90;83.50;;;;;;5034095;28;21794;-67
2023/06/19 06:49:17;;;;;;;0.90;0.73;;;19.80;82.90;;;;;;5036026;28;20068;-67
2023/06/19 06:51:43;;;;;;;5.47;0.63;;;19.80;83.60;;;;;;5036733;28;20091;-69
2023/06/19 06:54:09;;;;;;;0.10;0.10;;;19.70;84.30;;;;;;5037048;28;20033;-67
2023/06/19 06:56:35;;;;;;;1.02;0.93;;;19.70;84.40;;;;;;5036800;28;20123;-68
2023/06/19 06:59:01;;;;;;;0.38;0.38;;;19.70;84.40;;;;;;5035146;28;20123;-68
2023/06/19 07:01:26;;;;;;;0.30;0.30;;;19.60;84.90;;;;;;5016478;28;20053;-68
2023/06/19 07:03:53;;;;;;;0.57;0.57;;;19.60;84.30;;;;;;5032492;28;20056;-68
2023/06/19 07:06:19;;;;;;;6.50;0.98;;;19.60;84.80;;;;;;5020379;28;20120;-68
2023/06/19 07:08:47;;;;;;;1.60;1.50;;;19.60;84.60;;;;;;5037824;28;20188;-66
2023/06/19 07:11:13;;;;;;;0.43;0.43;;;19.60;84.40;;;;;;5036412;28;20045;-67
2023/06/19 07:13:39;;;;;;;0.63;0.63;;;19.60;83.90;;;;;;5035635;28;20071;-67
2023/06/19 07:16:06;;;;;;;0.00;0.00;;;19.70;84.60;;;;;;5037399;28;20060;-67
2023/06/19 07:18:33;;;;;;;1.77;0.45;;;19.60;84.00;;;;;;5036654;28;20051;-68
2023/06/19 07:20:58;;;;;;;2.75;0.75;;;19.70;84.10;;;;;;5037705;28;20045;-68
2023/06/19 07:23:24;;;;;;;0.52;0.52;;;19.70;83.80;;;;;;5035458;28;20044;-69
2023/06/19 07:25:50;;;;;;;0.28;0.28;;;19.60;84.10;;;;;;5037694;28;20099;-69
2023/06/19 07:28:15;;;;;;;0.20;0.20;;;19.60;84.60;;;;;;5036150;28;20486;-67
2023/06/19 07:30:41;;;;;;;0.40;0.40;;;19.60;84.60;;;;;;5034591;28;20057;-68
2023/06/19 07:33:06;;;;;;;0.43;0.40;;;19.60;84.00;;;;;;5035934;28;20068;-68
2023/06/19 07:35:32;;;;;;;0.50;0.50;;;19.60;84.30;;;;;;5019075;28;20041;-68
2023/06/19 07:37:57;;;;;;;0.10;0.10;;;19.60;84.60;;;;;;5019242;28;20060;-68
2023/06/19 07:40:23;;;;;;;0.25;0.20;;;19.50;84.90;;;;;;5037458;28;20049;-67
2023/06/19 07:42:48;;;;;;;0.00;0.00;;;19.60;84.30;;;;;;5037493;28;20049;-68
2023/06/19 07:45:14;;;;;;;1.27;0.85;;;19.60;84.60;;;;;;5034776;28;20052;-67
2023/06/19 07:47:40;;;;;;;1.10;0.73;;;19.60;84.00;;;;;;5035791;28;20049;-68
2023/06/19 07:50:06;;;;;;;0.98;0.88;;;19.60;83.70;;;;;;5035743;28;20049;-67
2023/06/19 07:52:31;;;;;;;0.30;0.30;;;19.60;83.80;;;;;;5012792;28;20049;-67
2023/06/19 07:54:58;;;;;;;0.20;0.20;;;19.60;84.20;;;;;;5037608;28;20039;-67
2023/06/19 07:57:25;;;;;;;0.10;0.10;;;19.60;83.80;;;;;;5035444;28;20052;-67
2023/06/19 07:59:54;;;;;;;0.00;0.00;;;19.60;84.30;;;;;;5036574;28;20072;-67
2023/06/19 08:02:19;;;;;;;0.00;0.00;;;19.60;84.40;;;;;;5036630;28;20130;-67
2023/06/19 08:04:46;;;;;;;0.52;0.52;;;19.70;84.00;;;;;;5029155;28;20502;-67
2023/06/19 08:07:11;;;;;;;4.38;0.80;;;19.60;83.90;;;;;;5027011;28;20049;-68
2023/06/19 08:09:37;;;;;;;0.00;0.00;;;19.60;83.40;;;;;;5029270;28;20087;-66
2023/06/19 08:12:03;;;;;;;0.00;0.00;;;19.50;83.40;;;;;;5035159;28;20049;-67
2023/06/19 08:14:28;;;;;;;0.00;0.00;;;19.50;83.70;;;;;;5014786;28;20872;-67
2023/06/19 08:16:54;;;;;;;0.10;0.10;;;19.40;84.00;;;;;;5035546;28;20045;-67
2023/06/19 08:19:20;;;;;;;0.03;0.03;;;19.40;83.80;;;;;;5035755;28;20080;-67
2023/06/19 08:21:46;;;;;;;0.03;0.03;;;19.30;84.00;;;;;;5036480;28;20117;-69
2023/06/19 08:24:11;;;;;;;0.00;0.00;;;19.30;83.90;;;;;;5035721;28;20048;-67
2023/06/19 08:26:37;;;;;;;0.00;0.00;;;19.30;84.00;;;;;;5024705;28;20049;-68
2023/06/19 08:29:03;;;;;;;0.05;0.05;;;19.30;84.20;;;;;;5034689;28;20037;-67
2023/06/19 08:31:28;;;;;;;0.10;0.10;;;19.30;83.90;;;;;;5033860;28;20053;-67
2023/06/19 08:33:55;;;;;;;0.47;0.47;;;19.40;83.20;;;;;;5028995;28;20041;-68
2023/06/19 08:36:21;;;;;;;0.00;0.00;;;19.50;83.10;;;;;;5034370;28;20517;-67
2023/06/19 08:38:49;;;;;;;2.55;1.17;;;19.40;82.80;;;;;;5017850;28;20056;-67
2023/06/19 08:41:18;;;;;;;0.00;0.00;;;19.40;82.90;;;;;;5036759;28;20057;-67
2023/06/19 08:43:45;;;;;;;0.00;0.00;;;19.40;82.80;;;;;;5051239;28;20874;-68
2023/06/19 08:46:13;;;;;;;0.40;0.40;;;19.40;82.70;;;;;;5035390;28;20046;-68
2023/06/19 08:48:39;;;;;;;0.73;0.73;;;19.50;82.40;;;;;;5036304;28;20045;-67
2023/06/19 08:51:05;;;;;;;1.42;1.33;;;19.40;82.40;;;;;;5035618;28;20041;-68
2023/06/19 08:53:38;;;;;;;0.95;0.85;;;19.30;82.50;;;;;;5036124;28;20148;-67
2023/06/19 08:56:04;;;;;;;0.10;0.10;;;19.50;82.30;;;;;;5034659;28;20118;-67
2023/06/19 08:58:29;;;;;;;0.20;0.20;;;19.40;82.40;;;;;;5034908;28;20061;-67
2023/06/19 09:00:59;;;;;;;0.10;0.10;;;19.40;81.90;;;;;;5037217;28;20052;-67
2023/06/19 09:03:24;;;;;;;0.10;0.10;;;19.40;81.80;;;;;;5018873;28;20052;-69
2023/06/19 09:05:50;;;;;;;0.10;0.10;;;19.30;81.90;;;;;;5040822;28;20041;-68
2023/06/19 09:08:17;;;;;;;8.60;0.85;;;19.30;81.50;;;;;;5038093;28;20685;-67
2023/06/19 09:10:53;;;;;;;0.45;0.45;;;19.30;81.60;;;;;;5037802;28;20721;-67
2023/06/19 09:13:19;;;;;;;1.55;0.57;;;19.40;81.50;;;;;;5037928;28;20061;-67
2023/06/19 09:15:44;;;;;;;0.30;0.30;;;19.30;81.50;;;;;;5040197;28;20116;-67
2023/06/19 09:18:14;;;;;;;0.03;0.03;;;19.30;81.50;;;;;;5018073;28;20091;-67
2023/06/19 09:20:44;;;;;;;0.10;0.10;;;19.40;81.20;;;;;;5038287;28;20041;-67
2023/06/19 09:23:10;;;;;;;2.38;0.55;;;19.50;81.00;;;;;;5019078;28;20509;-67
2023/06/19 09:25:50;;;;;;;0.22;0.22;;;19.50;80.90;;;;;;5021545;28;20108;-67
2023/06/19 09:28:18;;;;;;;0.10;0.10;;;19.50;80.80;;;;;;5038679;28;20057;-67
2023/06/19 09:31:05;;;;;;;0.03;0.03;;;19.60;80.60;;;;;;5039348;28;20045;-67
2023/06/19 09:33:32;;;;;;;2.40;0.68;;;19.60;80.30;;;;;;5038595;28;20059;-67
2023/06/19 09:35:59;;;;;;;0.55;0.52;;;19.50;80.60;;;;;;5040379;28;20045;-68
2023/06/19 09:38:37;;;;;;;0.00;0.00;;;19.50;80.90;;;;;;5023091;28;20120;-68
2023/06/19 09:41:04;;;;;;;0.10;0.10;;;19.60;80.90;;;;;;5038743;28;20519;-68
2023/06/19 09:43:37;;;;;;;0.00;0.00;;;19.50;80.80;;;;;;5037347;28;20049;-69
2023/06/19 09:46:04;;;;;;;0.30;0.30;;;19.50;80.80;;;;;;5034711;28;20055;-71
2023/06/19 09:48:34;;;;;;;0.00;0.00;;;19.50;80.80;;;;;;5017546;28;20037;-67
2023/06/19 09:51:23;;;;;;;0.77;0.77;;;19.60;80.70;;;;;;5037134;28;20529;-68
2023/06/19 09:53:50;;;;;;;0.30;0.30;;;19.70;80.60;;;;;;5038898;28;20037;-67
2023/06/19 09:56:21;;;;;;;0.20;0.20;;;19.70;80.60;;;;;;5037563;28;20037;-68
2023/06/19 09:58:49;;;;;;;0.10;0.10;;;19.80;80.50;;;;;;5021007;28;20053;-67
2023/06/19 10:01:18;;;;;;;0.98;0.98;;;19.90;79.90;;;;;;5036739;28;20049;-67
2023/06/19 10:03:44;;;;;;;1.90;0.73;;;19.80;79.40;;;;;;5038275;28;20045;-69
2023/06/19 10:06:15;;;;;;;0.00;0.00;;;19.80;79.60;;;;;;5018746;28;20037;-69
2023/06/19 10:08:43;;;;;;;0.68;0.68;;;19.90;80.20;;;;;;5038016;28;20049;-69
2023/06/19 10:11:10;;;;;;;0.30;0.30;;;20.00;79.70;;;;;;5037341;28;20037;-69
2023/06/19 10:13:40;;;;;;;5.47;0.73;;;20.10;79.00;;;;;;5038593;28;20138;-69
2023/06/19 10:16:07;;;;;;;0.15;0.15;;;20.10;78.80;;;;;;5035830;28;20042;-68
2023/06/19 10:18:43;;;;;;;1.45;0.98;;;20.30;79.20;;;;;;5036013;28;20125;-68
2023/06/19 10:21:17;;;;;;;0.15;0.15;;;20.40;78.40;;;;;;5032581;28;20124;-68
2023/06/19 10:23:42;;;;;;;1.67;0.77;;;20.30;77.70;;;;;;5037597;28;20584;-67
2023/06/19 10:26:08;;;;;;;0.00;0.00;;;20.30;78.00;;;;;;5038013;28;20038;-68
2023/06/19 10:28:34;;;;;;;0.20;0.20;;;20.20;78.40;;;;;;5039436;28;20041;-64
2023/06/19 10:31:05;;;;;;;1.75;1.65;;;20.30;78.50;;;;;;5038511;28;20084;-67
2023/06/19 10:33:33;;;;;;;0.40;0.40;;;20.40;77.80;;;;;;5038484;28;20039;-66
2023/06/19 10:36:00;;;;;;;0.80;0.80;;;20.50;77.00;;;;;;5038016;28;20092;-67
2023/06/19 10:38:26;;;;;;;0.10;0.10;;;20.50;76.80;;;;;;5038888;28;20180;-66
2023/06/19 10:40:52;;;;;;;1.02;1.00;;;20.50;76.80;;;;;;5034637;28;20116;-65
2023/06/19 10:43:24;;;;;;;0.00;0.00;;;20.50;76.00;;;;;;5039087;28;20044;-67
2023/06/19 10:45:53;;;;;;;1.45;0.73;;;20.50;76.20;;;;;;5038752;28;20049;-68
2023/06/19 10:48:24;;;;;;;0.73;0.73;;;20.50;76.20;;;;;;5033785;28;20056;-69
2023/06/19 10:50:50;;;;;;;3.60;2.20;;;20.50;76.30;;;;;;5038732;28;20045;-68
2023/06/19 10:53:31;;;;;;;0.55;0.55;;;20.40;76.30;;;;;;5037369;28;20439;-67
2023/06/19 10:56:00;;;;;;;0.68;0.68;;;20.30;76.40;;;;;;5035833;28;20057;-67
2023/06/19 10:58:27;;;;;;;3.70;0.98;;;20.20;76.40;;;;;;5033991;28;20041;-67
2023/06/19 11:00:53;;;;;;;0.13;0.13;;;20.10;76.90;;;;;;5034800;28;20757;-68
2023/06/19 11:03:20;;;;;;;0.57;0.57;;;20.20;76.70;;;;;;5037921;28;20094;-69
2023/06/19 11:05:46;;;;;;;4.53;1.77;;;20.20;76.70;;;;;;5020025;28;20120;-67
2023/06/19 11:08:17;;;;;;;0.30;0.30;;;20.30;76.30;;;;;;5036373;28;20391;-67
2023/06/19 11:10:43;;;;;;;;;;;20.40;76.00;;;;;;5037545;28;20052;-67
2023/06/19 11:13:17;;;;;;;0.10;0.10;;;20.60;75.70;;;;;;5037642;28;19921;-66
2023/06/19 11:15:43;;;;;;;12.85;1.50;;;20.70;75.20;;;;;;5038382;28;20033;-66
2023/06/19 11:18:09;;;;;;;0.00;0.00;;;20.60;74.80;;;;;;5037538;28;20044;-67
2023/06/19 11:20:49;;;;;;;0.10;0.10;;;20.70;75.00;;;;;;5037418;28;20060;-67
2023/06/19 11:23:15;;;;;;;2.40;0.45;;;20.70;74.90;;;;;;5036154;28;20058;-66
2023/06/19 11:25:42;;;;;;;0.43;0.43;;;20.60;74.90;;;;;;5037389;28;20140;-66
2023/06/19 11:28:12;;;;;;;0.30;0.30;;;20.60;75.20;;;;;;5036499;28;20051;-66
2023/06/19 11:30:38;;;;;;;1.08;1.02;;;20.60;74.70;;;;;;5036855;28;20764;-66
2023/06/19 11:33:03;;;;;;;0.45;0.43;;;20.70;74.70;;;;;;5034465;28;20052;-67
2023/06/19 11:35:36;;;;;;;0.20;0.20;;;20.80;74.90;;;;;;5018493;28;20041;-67
2023/06/19 11:38:02;;;;;;;1.95;1.35;;;21.00;74.10;;;;;;5019388;28;20043;-65
2023/06/19 11:40:29;;;;;;;0.10;0.10;;;21.10;73.60;;;;;;5017410;28;20053;-67
2023/06/19 11:42:55;;;;;;;0.10;0.10;;;21.20;73.00;;;;;;5033406;28;20059;-66
2023/06/19 11:45:21;;;;;;;0.10;0.10;;;21.30;72.50;;;;;;5037400;28;20045;-67
2023/06/19 11:47:48;;;;;;;4.20;2.45;;;21.40;73.00;;;;;;5036853;28;20136;-67
2023/06/19 11:50:15;;;;;;;0.10;0.10;;;21.50;72.80;;;;;;5035274;28;20553;-67
2023/06/19 11:52:44;;;;;;;0.20;0.20;;;21.50;72.70;;;;;;5036530;28;20052;-66
2023/06/19 11:55:10;;;;;;;1.40;1.30;;;21.50;72.20;;;;;;5037411;28;20037;-67
2023/06/19 11:57:36;;;;;;;0.10;0.10;;;21.50;71.50;;;;;;5037626;28;20055;-66
2023/06/19 12:00:06;;;;;;;0.10;0.10;;;21.50;71.20;;;;;;5037133;28;20060;-66
2023/06/19 12:02:32;;;;;;;0.37;0.33;;;21.50;70.00;;;;;;5019632;28;20033;-66
2023/06/19 12:04:57;;;;;;;0.20;0.20;;;21.50;70.70;;;;;;5037455;28;20391;-67
2023/06/19 12:07:23;;;;;;;0.10;0.10;;;21.60;70.70;;;;;;5036677;28;20041;-67
2023/06/19 12:09:49;;;;;;;0.22;0.22;;;21.60;70.80;;;;;;5035215;28;20052;-67
2023/06/19 12:12:14;;;;;;;0.05;0.05;;;21.60;70.70;;;;;;5036915;28;20072;-67
2023/06/19 12:14:40;;;;;;;0.00;0.00;;;21.70;71.40;;;;;;5034118;28;20048;-67
2023/06/19 12:17:05;;;;;;;0.10;0.10;;;21.80;70.90;;;;;;5036508;28;20528;-67
2023/06/19 12:19:31;;;;;;;0.80;0.80;;;22.10;70.30;;;;;;5037196;28;20119;-66
2023/06/19 12:21:57;;;;;;;0.00;0.00;;;22.20;69.10;;;;;;5035026;28;20181;-67
2023/06/19 12:24:23;;;;;;;0.47;0.47;;;22.20;68.40;;;;;;5017900;28;20097;-68
2023/06/19 12:26:48;;;;;;;0.00;0.00;;;22.30;68.70;;;;;;5035511;28;20077;-68
2023/06/19 12:29:14;;;;;;;0.10;0.10;;;22.40;68.20;;;;;;4996928;28;20081;-67
2023/06/19 12:31:40;;;;;;;1.20;1.10;;;22.30;67.20;;;;;;5035391;28;20077;-67
2023/06/19 12:34:06;;;;;;;0.00;0.00;;;22.40;67.30;;;;;;5037308;28;20048;-67
2023/06/19 12:36:31;;;;;;;0.00;0.00;;;22.50;67.50;;;;;;5038780;28;20044;-67
2023/06/19 12:38:59;;;;;;;0.10;0.10;;;22.80;67.30;;;;;;5039333;28;20056;-68
2023/06/19 12:41:24;;;;;;;1.40;0.95;;;22.90;66.70;;;;;;5041412;28;20410;-67
2023/06/19 12:43:50;;;;;;;0.20;0.20;;;23.00;66.40;;;;;;5038934;28;20040;-68
2023/06/19 12:46:16;;;;;;;0.65;0.65;;;23.10;66.70;;;;;;5019662;28;20069;-68